createdAt,value
2022-09-10T00:02:02.435Z,10.88
2022-09-10T00:04:30.112Z,9.90
2022-09-10T00:06:57.341Z,9.15
2022-09-10T00:09:24.120Z,15.10
2022-09-10T00:11:50.890Z,10.68
2022-09-10T00:14:21.168Z,10.70
2022-09-10T00:16:49.098Z,10.77
2022-09-10T00:21:45.110Z,10.43
2022-09-10T00:24:12.185Z,9.98
2022-09-10T00:26:39.636Z,12.30
2022-09-10T00:29:10.428Z,10.50
2022-09-10T00:31:37.957Z,11.50
2022-09-10T00:34:05.914Z,8.40
2022-09-10T00:39:12.989Z,7.00
2022-09-10T00:41:42.233Z,7.88
2022-09-10T00:44:39.594Z,11.45
2022-09-10T00:49:54.125Z,10.57
2022-09-10T00:52:21.120Z,7.47
2022-09-10T00:54:48.390Z,12.98
2022-09-10T00:57:19.426Z,18.00
2022-09-10T00:59:51.987Z,12.57
2022-09-10T01:02:19.129Z,11.57
2022-09-10T01:04:46.264Z,13.85
2022-09-10T01:07:14.426Z,10.53
2022-09-10T01:09:42.809Z,15.93
2022-09-10T01:12:26.215Z,14.95
2022-09-10T01:15:15.764Z,11.35
2022-09-10T01:18:12.408Z,9.57
2022-09-10T01:20:56.076Z,10.15
2022-09-10T01:24:12.291Z,17.17
2022-09-10T01:26:59.139Z,15.70
2022-09-10T01:30:04.487Z,14.15
2022-09-10T01:33:07.710Z,13.60
2022-09-10T01:35:44.718Z,8.65
2022-09-10T01:38:21.988Z,13.40
2022-09-10T01:40:49.851Z,5.88
2022-09-10T01:43:20.245Z,11.80
2022-09-10T01:46:14.881Z,12.38
2022-09-10T01:48:50.703Z,8.35
2022-09-10T01:51:49.097Z,13.13
2022-09-10T01:54:45.582Z,13.85
2022-09-10T01:57:37.335Z,12.43
2022-09-10T02:00:16.593Z,10.43
2022-09-10T02:03:04.070Z,11.48
2022-09-10T02:05:36.368Z,13.50
2022-09-10T02:08:11.931Z,11.77
2022-09-10T02:11:10.535Z,11.05
2022-09-10T02:13:39.431Z,12.43
2022-09-10T02:16:37.732Z,8.40
2022-09-10T02:19:05.394Z,12.30
2022-09-10T02:21:33.962Z,17.88
2022-09-10T02:24:08.552Z,14.80
2022-09-10T02:26:39.623Z,17.40
2022-09-10T02:29:07.524Z,17.35
2022-09-10T02:31:34.409Z,13.57
2022-09-10T02:34:03.158Z,18.10
2022-09-10T02:36:31.900Z,14.73
2022-09-10T02:39:00.306Z,13.02
2022-09-10T02:41:28.657Z,20.13
2022-09-10T02:43:55.480Z,16.80
2022-09-10T02:46:22.947Z,12.18
2022-09-10T02:48:50.270Z,14.15
2022-09-10T02:51:16.953Z,13.30
2022-09-10T02:53:44.237Z,18.38
2022-09-10T02:56:13.686Z,11.93
2022-09-10T02:58:42.244Z,15.20
2022-09-10T03:01:15.521Z,11.25
2022-09-10T03:03:56.941Z,14.02
2022-09-10T03:06:25.307Z,17.35
2022-09-10T03:08:52.133Z,9.93
2022-09-10T03:11:18.888Z,21.40
2022-09-10T03:13:46.228Z,14.02
2022-09-10T03:16:13.775Z,16.27
2022-09-10T03:18:41.688Z,18.02
2022-09-10T03:21:20.906Z,11.75
2022-09-10T03:23:50.834Z,16.67
2022-09-10T03:26:25.378Z,19.15
2022-09-10T03:28:53.307Z,18.40
2022-09-10T03:31:22.347Z,21.50
2022-09-10T03:33:51.104Z,21.88
2022-09-10T03:36:18.373Z,18.55
2022-09-10T03:38:47.582Z,17.20
2022-09-10T03:41:14.479Z,14.20
2022-09-10T03:43:41.312Z,17.77
2022-09-10T03:46:12.002Z,20.05
2022-09-10T03:48:42.862Z,19.65
2022-09-10T03:51:10.841Z,14.27
2022-09-10T03:53:38.701Z,16.33
2022-09-10T03:56:07.113Z,21.50
2022-09-10T04:01:03.469Z,16.05
2022-09-10T04:03:32.233Z,23.75
2022-09-10T04:05:58.927Z,20.15
2022-09-10T04:08:25.727Z,18.73
2022-09-10T04:10:53.411Z,20.80
2022-09-10T04:13:20.089Z,14.93
2022-09-10T04:15:47.035Z,21.67
2022-09-10T04:18:13.671Z,21.67
2022-09-10T04:20:40.635Z,21.55
2022-09-10T04:23:10.163Z,22.83
2022-09-10T04:25:39.059Z,20.55
2022-09-10T04:28:06.141Z,19.70
2022-09-10T04:30:33.319Z,20.42
2022-09-10T04:33:00.841Z,25.83
2022-09-10T04:35:30.366Z,24.02
2022-09-10T04:37:57.628Z,27.55
2022-09-10T04:40:24.810Z,25.25
2022-09-10T04:42:51.427Z,23.20
2022-09-10T04:45:19.165Z,26.35
2022-09-10T04:50:16.335Z,26.42
2022-09-10T04:53:02.893Z,20.85
2022-09-10T04:55:31.880Z,27.67
2022-09-10T04:57:59.453Z,26.05
2022-09-10T05:00:27.101Z,24.27
2022-09-10T05:02:54.374Z,27.45
2022-09-10T05:05:21.258Z,28.00
2022-09-10T05:07:48.647Z,24.58
2022-09-10T05:10:15.333Z,15.48
2022-09-10T05:12:42.267Z,34.03
2022-09-10T05:15:10.583Z,30.95
2022-09-10T05:17:37.231Z,29.48
2022-09-10T05:20:07.093Z,27.58
2022-09-10T05:22:40.636Z,33.17
2022-09-10T05:25:08.644Z,29.95
2022-09-10T05:27:35.434Z,40.08
2022-09-10T05:30:03.093Z,31.23
2022-09-10T05:32:32.732Z,28.65
2022-09-10T05:34:59.375Z,35.20
2022-09-10T05:37:26.917Z,39.13
2022-09-10T05:39:53.758Z,33.47
2022-09-10T05:42:22.147Z,40.05
2022-09-10T05:44:49.017Z,26.80
2022-09-10T05:47:15.736Z,38.03
2022-09-10T05:49:42.941Z,27.17
2022-09-10T05:52:09.648Z,32.15
2022-09-10T05:54:36.488Z,33.03
2022-09-10T05:57:03.304Z,40.35
2022-09-10T05:59:30.659Z,34.70
2022-09-10T06:01:58.175Z,35.53
2022-09-10T06:04:25.293Z,40.53
2022-09-10T06:06:52.317Z,35.10
2022-09-10T06:09:19.385Z,34.28
2022-09-10T06:12:09.051Z,32.97
2022-09-10T06:14:36.526Z,32.90
2022-09-10T06:17:03.333Z,30.15
2022-09-10T06:19:31.490Z,34.90
2022-09-10T06:21:59.081Z,30.25
2022-09-10T06:24:27.018Z,34.42
2022-09-10T06:26:56.011Z,22.42
2022-09-10T06:29:24.270Z,25.98
2022-09-10T06:31:51.439Z,32.28
2022-09-10T06:34:18.982Z,31.25
2022-09-10T06:39:17.174Z,24.90
2022-09-10T06:41:54.026Z,24.20
2022-09-10T06:44:50.670Z,25.17
2022-09-10T06:48:06.795Z,32.95
2022-09-10T06:50:19.476Z,30.65
2022-09-10T06:52:46.090Z,25.13
2022-09-10T06:55:14.593Z,30.95
2022-09-10T06:57:44.416Z,29.83
2022-09-10T07:00:14.199Z,30.15
2022-09-10T07:02:43.352Z,32.45
2022-09-10T07:07:39.226Z,27.05
2022-09-10T07:10:08.101Z,27.55
2022-09-10T07:12:34.839Z,27.37
2022-09-10T07:15:01.875Z,26.43
2022-09-10T07:17:35.224Z,22.50
2022-09-10T07:20:02.977Z,24.30
2022-09-10T07:22:46.664Z,18.92
2022-09-10T07:27:53.850Z,21.50
2022-09-10T07:30:22.295Z,17.38
2022-09-10T07:32:50.510Z,27.60
2022-09-10T07:35:21.488Z,20.08
2022-09-10T07:37:49.583Z,20.92
2022-09-10T07:40:16.897Z,21.77
2022-09-10T07:42:44.202Z,19.17
2022-09-10T07:45:16.098Z,16.90
2022-09-10T07:47:44.630Z,23.77
2022-09-10T07:50:12.071Z,19.70
2022-09-10T07:52:38.836Z,22.85
2022-09-10T07:55:06.188Z,21.83
2022-09-10T07:57:37.924Z,26.02
2022-09-10T08:00:12.020Z,20.92
2022-09-10T08:02:43.012Z,23.17
2022-09-10T08:05:14.176Z,19.58
2022-09-10T08:07:41.721Z,11.65
2022-09-10T08:10:10.795Z,16.17
2022-09-10T08:12:40.851Z,16.08
2022-09-10T08:15:08.837Z,18.23
2022-09-10T08:17:36.811Z,14.75
2022-09-10T08:20:08.093Z,17.65
2022-09-10T08:22:36.215Z,19.90
2022-09-10T08:25:03.769Z,13.50
2022-09-10T08:27:34.383Z,14.48
2022-09-10T08:30:04.040Z,16.67
2022-09-10T08:32:31.104Z,17.38
2022-09-10T08:34:57.772Z,13.97
2022-09-10T08:37:25.425Z,16.00
2022-09-10T08:39:52.673Z,16.98
2022-09-10T08:42:50.281Z,17.80
2022-09-10T08:45:28.711Z,16.85
2022-09-10T08:48:17.819Z,17.83
2022-09-10T08:50:58.956Z,18.35
2022-09-10T08:53:26.654Z,13.25
2022-09-10T08:58:33.417Z,20.98
2022-09-10T09:01:04.876Z,23.85
2022-09-10T09:03:42.966Z,16.98
2022-09-10T09:06:42.840Z,15.98
2022-09-10T09:09:15.600Z,24.25
2022-09-10T09:12:03.359Z,15.27
2022-09-10T09:14:50.620Z,16.55
2022-09-10T09:17:29.783Z,16.35
2022-09-10T09:20:12.780Z,18.65
2022-09-10T09:23:06.256Z,19.35
2022-09-10T09:26:06.327Z,25.77
2022-09-10T09:28:42.538Z,19.63
2022-09-10T09:31:17.831Z,21.05
2022-09-10T09:33:48.991Z,18.70
2022-09-10T09:36:30.111Z,17.55
2022-09-10T09:38:57.113Z,16.00
2022-09-10T09:41:39.060Z,20.02
2022-09-10T09:44:16.808Z,19.50
2022-09-10T09:46:43.511Z,17.30
2022-09-10T09:49:16.931Z,21.77
2022-09-10T09:51:46.927Z,23.23
2022-09-10T09:55:09.992Z,26.27
2022-09-10T09:57:20.522Z,25.98
2022-09-10T09:59:51.190Z,21.95
2022-09-10T10:02:25.823Z,22.60
2022-09-10T10:05:07.101Z,17.42
2022-09-10T10:07:36.311Z,26.42
2022-09-10T10:10:07.486Z,23.40
2022-09-10T10:12:49.204Z,21.05
2022-09-10T10:15:36.677Z,26.30
2022-09-10T10:18:33.521Z,21.02
2022-09-10T10:21:20.352Z,19.65
2022-09-10T10:23:48.072Z,26.20
2022-09-10T10:26:20.847Z,21.90
2022-09-10T10:28:53.863Z,32.60
2022-09-10T10:31:20.995Z,21.50
2022-09-10T10:34:10.559Z,26.08
2022-09-10T10:36:53.779Z,26.92
2022-09-10T10:39:35.198Z,20.83
2022-09-10T10:42:15.851Z,25.98
2022-09-10T10:45:17.471Z,17.13
2022-09-10T10:48:05.743Z,15.70
2022-09-10T10:50:39.782Z,15.55
2022-09-10T10:53:27.343Z,16.63
2022-09-10T10:56:14.765Z,20.05
2022-09-10T10:59:11.359Z,25.25
2022-09-10T11:01:48.698Z,27.43
2022-09-10T11:04:50.452Z,22.13
2022-09-10T11:07:39.407Z,20.83
2022-09-10T11:10:23.098Z,17.50
2022-09-10T11:13:13.449Z,18.98
2022-09-10T11:15:53.541Z,19.35
2022-09-10T11:18:30.850Z,19.10
2022-09-10T11:21:20.337Z,16.02
2022-09-10T11:24:17.104Z,15.57
2022-09-10T11:27:06.452Z,21.27
2022-09-10T11:29:49.829Z,20.17
2022-09-10T11:32:34.657Z,20.23
2022-09-10T11:35:04.282Z,21.38
2022-09-10T11:37:50.521Z,16.08
2022-09-10T11:40:33.081Z,20.30
2022-09-10T11:43:11.204Z,14.48
2022-09-10T11:46:02.560Z,15.18
2022-09-10T11:48:38.344Z,14.88
2022-09-10T11:51:25.863Z,18.90
2022-09-10T11:53:54.881Z,8.40
2022-09-10T11:56:21.403Z,13.07
2022-09-10T11:59:00.244Z,14.60
2022-09-10T12:01:34.688Z,17.75
2022-09-10T12:04:39.333Z,16.10
2022-09-10T12:07:27.909Z,13.88
2022-09-10T12:10:14.562Z,6.95
2022-09-10T12:12:44.249Z,12.13
2022-09-10T12:15:26.125Z,10.57
2022-09-10T12:18:04.458Z,11.10
2022-09-10T12:20:42.936Z,8.82
2022-09-10T12:23:18.519Z,20.95
2022-09-10T12:25:45.507Z,7.93
2022-09-10T12:28:54.234Z,11.52
2022-09-10T12:31:22.299Z,8.20
2022-09-10T12:33:51.082Z,8.75
2022-09-10T12:36:26.759Z,9.82
2022-09-10T12:39:18.711Z,4.72
2022-09-10T12:41:45.279Z,5.65
2022-09-10T12:44:31.036Z,4.05
2022-09-10T12:47:18.642Z,5.03
2022-09-10T12:52:40.165Z,3.92
2022-09-10T12:55:29.223Z,5.65
2022-09-10T12:58:11.942Z,3.08
2022-09-10T13:00:50.583Z,5.18
2022-09-10T13:03:19.865Z,2.35
2022-09-10T13:05:50.558Z,4.95
2022-09-10T13:08:28.019Z,4.22
2022-09-10T13:10:59.342Z,3.85
2022-09-10T13:13:33.775Z,2.63
2022-09-10T13:16:02.203Z,5.50
2022-09-10T13:18:34.297Z,2.80
2022-09-10T13:21:24.096Z,7.53
2022-09-10T13:23:52.671Z,4.47
2022-09-10T13:26:31.285Z,4.00
2022-09-10T13:29:01.287Z,3.33
2022-09-10T13:31:35.407Z,2.97
2022-09-10T13:34:17.968Z,2.83
2022-09-10T13:37:02.469Z,4.57
2022-09-10T13:39:47.856Z,6.47
2022-09-10T13:42:33.616Z,4.32
2022-09-10T13:45:29.355Z,4.38
2022-09-10T13:48:01.943Z,6.30
2022-09-10T13:50:38.018Z,1.92
2022-09-10T13:53:10.857Z,2.45
2022-09-10T13:55:38.446Z,3.45
2022-09-10T13:58:15.717Z,1.98
2022-09-10T14:00:54.009Z,2.63
2022-09-10T14:03:30.418Z,5.15
2022-09-10T14:06:01.840Z,3.22
2022-09-10T14:08:33.322Z,2.95
2022-09-10T14:11:14.352Z,5.65
2022-09-10T14:14:06.334Z,3.65
2022-09-10T14:16:35.829Z,4.28
2022-09-10T14:19:05.824Z,3.65
2022-09-10T14:21:33.193Z,3.42
2022-09-10T14:24:00.005Z,4.05
2022-09-10T14:26:33.573Z,4.20
2022-09-10T14:29:23.482Z,5.55
2022-09-10T14:31:50.274Z,2.33
2022-09-10T14:34:34.901Z,2.42
2022-09-10T14:37:21.963Z,5.07
2022-09-10T14:39:48.774Z,2.97
2022-09-10T14:42:27.203Z,2.45
2022-09-10T14:44:54.410Z,3.88
2022-09-10T14:47:29.714Z,4.80
2022-09-10T14:50:34.804Z,2.28
2022-09-10T14:53:01.757Z,0.98
2022-09-10T14:55:31.488Z,4.28
2022-09-10T14:57:59.148Z,2.28
2022-09-10T15:00:26.086Z,2.70
2022-09-10T15:02:55.891Z,4.03
2022-09-10T15:05:22.642Z,1.65
2022-09-10T15:07:49.565Z,2.72
2022-09-10T15:10:17.090Z,2.65
2022-09-10T15:15:17.168Z,2.97
2022-09-10T15:17:44.622Z,1.48
2022-09-10T15:20:16.897Z,2.50
2022-09-10T15:22:44.610Z,2.20
2022-09-10T15:25:38.368Z,3.60
2022-09-10T15:28:07.483Z,1.60
2022-09-10T15:30:36.752Z,3.85
2022-09-10T15:33:07.908Z,2.28
2022-09-10T15:35:34.536Z,0.95
2022-09-10T15:38:01.773Z,2.28
2022-09-10T15:40:28.510Z,1.55
2022-09-10T15:42:55.370Z,1.88
2022-09-10T15:45:22.002Z,2.90
2022-09-10T15:47:48.632Z,0.70
2022-09-10T15:50:16.146Z,1.13
2022-09-10T15:52:44.864Z,2.97
2022-09-10T15:55:12.468Z,3.33
2022-09-10T15:57:40.347Z,0.68
2022-09-10T16:00:07.926Z,1.38
2022-09-10T16:02:34.654Z,1.65
2022-09-10T16:05:01.310Z,2.65
2022-09-10T16:07:28.258Z,1.45
2022-09-10T16:09:55.340Z,1.73
2022-09-10T16:12:22.032Z,3.50
2022-09-10T16:14:48.644Z,2.90
2022-09-10T16:17:17.320Z,3.00
2022-09-10T16:19:43.915Z,3.10
2022-09-10T16:22:11.382Z,1.45
2022-09-10T16:24:38.005Z,2.80
2022-09-10T16:27:04.594Z,1.20
2022-09-10T16:29:32.641Z,0.98
2022-09-10T16:31:59.726Z,2.45
2022-09-10T16:34:26.419Z,3.33
2022-09-10T16:36:53.087Z,2.57
2022-09-10T16:39:20.194Z,0.60
2022-09-10T16:41:48.799Z,1.65
2022-09-10T16:44:17.604Z,1.38
2022-09-10T16:46:45.099Z,2.88
2022-09-10T16:49:13.889Z,0.93
2022-09-10T16:51:42.339Z,1.52
2022-09-10T16:54:10.163Z,2.83
2022-09-10T16:56:42.187Z,2.50
2022-09-10T16:59:17.781Z,2.40
2022-09-10T17:01:47.904Z,1.35
2022-09-10T17:04:20.497Z,1.50
2022-09-10T17:06:49.121Z,0.90
2022-09-10T17:09:15.860Z,2.27
2022-09-10T17:11:42.488Z,1.85
2022-09-10T17:14:09.232Z,2.90
2022-09-10T17:16:39.096Z,1.90
2022-09-10T17:19:15.449Z,3.22
2022-09-10T17:21:45.216Z,2.72
2022-09-10T17:24:13.371Z,2.92
2022-09-10T17:26:41.300Z,3.92
2022-09-10T17:29:14.640Z,1.75
2022-09-10T17:31:41.668Z,6.00
2022-09-10T17:34:13.184Z,6.03
2022-09-10T17:36:45.412Z,3.03
2022-09-10T17:39:13.060Z,3.97
2022-09-10T17:41:40.704Z,2.45
2022-09-10T17:44:08.175Z,3.05
2022-09-10T17:46:36.208Z,3.70
2022-09-10T17:49:03.808Z,3.55
2022-09-10T17:51:32.774Z,4.25
2022-09-10T17:53:59.432Z,4.38
2022-09-10T17:56:27.350Z,4.07
2022-09-10T17:59:01.946Z,4.30
2022-09-10T18:01:34.212Z,6.05
2022-09-10T18:04:00.983Z,3.55
2022-09-10T18:06:29.193Z,4.22
2022-09-10T18:09:02.939Z,5.38
2022-09-10T18:11:32.553Z,6.00
2022-09-10T18:14:00.148Z,2.42
2022-09-10T18:16:29.917Z,4.07
2022-09-10T18:19:12.835Z,5.03
2022-09-10T18:21:40.838Z,4.95
2022-09-10T18:24:11.683Z,4.47
2022-09-10T18:26:42.682Z,4.40
2022-09-10T18:29:21.443Z,3.95
2022-09-10T18:31:55.873Z,6.38
2022-09-10T18:34:27.926Z,4.53
2022-09-10T18:37:00.257Z,5.18
2022-09-10T18:39:28.805Z,4.78
2022-09-10T18:41:55.507Z,6.30
2022-09-10T18:44:24.992Z,11.13
2022-09-10T18:46:52.986Z,5.30
2022-09-10T18:49:21.960Z,7.70
2022-09-10T18:51:49.421Z,4.97
2022-09-10T18:54:17.083Z,5.13
2022-09-10T18:56:45.095Z,7.32
2022-09-10T18:59:15.119Z,4.90
2022-09-10T19:01:43.722Z,3.95
2022-09-10T19:04:12.935Z,5.65
2022-09-10T19:06:42.596Z,7.07
2022-09-10T19:09:21.216Z,8.73
2022-09-10T19:11:49.516Z,7.05
2022-09-10T19:14:19.105Z,5.53
2022-09-10T19:16:47.909Z,6.53
2022-09-10T19:19:18.721Z,8.60
2022-09-10T19:21:47.246Z,5.95
2022-09-10T19:24:15.172Z,5.18
2022-09-10T19:29:11.868Z,3.65
2022-09-10T19:31:40.244Z,7.18
2022-09-10T19:34:08.615Z,2.92
2022-09-10T19:36:35.875Z,2.28
2022-09-10T19:39:06.264Z,3.28
2022-09-10T19:41:35.325Z,2.63
2022-09-10T19:44:03.016Z,6.15
2022-09-10T19:46:30.524Z,5.72
2022-09-10T19:48:59.690Z,3.92
2022-09-10T19:51:29.181Z,5.60
2022-09-10T19:53:56.251Z,2.70
2022-09-10T19:56:25.988Z,3.23
2022-09-10T19:58:55.603Z,4.32
2022-09-10T20:01:25.795Z,6.50
2022-09-10T20:03:56.210Z,8.30
2022-09-10T20:06:25.595Z,6.50
2022-09-10T20:08:52.781Z,5.93
2022-09-10T20:11:22.792Z,10.82
2022-09-10T20:13:53.247Z,9.48
2022-09-10T20:16:20.119Z,7.72
2022-09-10T20:18:46.805Z,7.63
2022-09-10T20:21:20.061Z,8.07
2022-09-10T20:23:50.896Z,8.02
2022-09-10T20:26:22.508Z,7.38
2022-09-10T20:29:00.936Z,6.13
2022-09-10T20:31:29.643Z,7.35
2022-09-10T20:33:58.546Z,11.27
2022-09-10T20:36:26.369Z,7.90
2022-09-10T20:38:53.878Z,8.10
2022-09-10T20:41:20.791Z,9.95
2022-09-10T20:43:52.285Z,5.82
2022-09-10T20:46:22.102Z,7.88
2022-09-10T20:48:50.142Z,9.90
2022-09-10T20:51:18.185Z,5.25
2022-09-10T20:56:14.424Z,6.63
2022-09-10T20:58:41.857Z,8.55
2022-09-10T21:01:22.755Z,10.15
2022-09-10T21:03:53.583Z,40.10
2022-09-10T21:06:24.209Z,6.25
2022-09-10T21:08:51.082Z,7.75
2022-09-10T21:11:20.271Z,7.80
2022-09-10T21:13:49.722Z,7.35
2022-09-10T21:16:25.723Z,5.38
2022-09-10T21:18:55.132Z,10.02
2022-09-10T21:21:25.482Z,4.57
2022-09-10T21:24:12.723Z,7.72
2022-09-10T21:26:40.980Z,6.70
2022-09-10T21:29:11.731Z,6.28
2022-09-10T21:31:39.131Z,7.28
2022-09-10T21:34:06.141Z,5.40
2022-09-10T21:36:34.820Z,4.90
2022-09-10T21:39:04.835Z,6.63
2022-09-10T21:41:31.701Z,5.38
2022-09-10T21:44:03.033Z,7.22
2022-09-10T21:46:30.100Z,6.20
2022-09-10T21:48:57.164Z,7.07
2022-09-10T21:51:24.043Z,6.83
2022-09-10T21:53:55.194Z,5.68
2022-09-10T21:56:23.121Z,6.68
2022-09-10T22:01:21.757Z,8.52
2022-09-10T22:03:49.522Z,6.72
2022-09-10T22:06:18.675Z,12.68
2022-09-10T22:08:48.297Z,81.90
2022-09-10T22:11:19.030Z,49.28
2022-09-10T22:13:51.917Z,10.48
2022-09-10T22:16:19.883Z,10.57
2022-09-10T22:21:13.328Z,13.13
2022-09-10T22:23:40.089Z,12.15
2022-09-10T22:26:10.051Z,8.27
2022-09-10T22:28:37.529Z,9.15
2022-09-10T22:31:16.536Z,8.82
2022-09-10T22:33:45.576Z,8.70
2022-09-10T22:36:16.801Z,7.18
2022-09-10T22:38:43.785Z,5.90
2022-09-10T22:41:11.244Z,6.13
2022-09-10T22:43:38.562Z,11.35
2022-09-10T22:46:07.058Z,8.27
2022-09-10T22:48:35.078Z,9.60
2022-09-10T22:51:02.250Z,8.68
2022-09-10T22:53:29.062Z,9.05
2022-09-10T22:55:55.876Z,8.18
2022-09-10T22:58:22.462Z,9.15
2022-09-10T23:00:49.360Z,7.82
2022-09-10T23:03:16.222Z,11.88
2022-09-10T23:05:42.934Z,12.68
2022-09-10T23:08:09.524Z,10.02
2022-09-10T23:10:36.133Z,11.18
2022-09-10T23:13:02.930Z,10.65
2022-09-10T23:15:33.129Z,10.77
2022-09-10T23:17:59.973Z,10.80
2022-09-10T23:20:27.425Z,12.48
2022-09-10T23:22:54.010Z,13.02
2022-09-10T23:25:20.623Z,12.00
2022-09-10T23:27:51.257Z,11.07
2022-09-10T23:30:18.169Z,10.52
2022-09-10T23:32:45.145Z,9.88
2022-09-10T23:35:12.069Z,10.40
2022-09-10T23:37:38.720Z,12.65
2022-09-10T23:40:06.639Z,10.98
2022-09-10T23:44:59.972Z,13.18
2022-09-10T23:47:27.020Z,11.27
2022-09-10T23:49:53.631Z,12.17
2022-09-10T23:52:20.552Z,13.25
2022-09-10T23:54:47.445Z,12.70
2022-09-10T23:57:14.069Z,9.80
2022-09-10T23:59:41.048Z,10.90
